createdAt,value
2019-03-09T00:01:31.638Z,2.60
2019-03-09T00:03:59.616Z,8.47
2019-03-09T00:06:28.293Z,4.23
2019-03-09T00:08:56.432Z,3.47
2019-03-09T00:11:25.071Z,6.70
2019-03-09T00:13:53.029Z,4.20
2019-03-09T00:16:21.690Z,3.43
2019-03-09T00:18:49.673Z,4.10
2019-03-09T00:21:17.782Z,3.63
2019-03-09T00:23:59.438Z,4.70
2019-03-09T00:26:34.666Z,6.83
2019-03-09T00:29:25.449Z,4.93
2019-03-09T00:31:59.556Z,12.20
2019-03-09T00:34:27.015Z,7.10
2019-03-09T00:36:55.116Z,2.70
2019-03-09T00:39:22.716Z,7.10
2019-03-09T00:41:50.602Z,2.10
2019-03-09T00:44:17.844Z,7.70
2019-03-09T00:46:45.792Z,4.10
2019-03-09T00:49:13.357Z,6.37
2019-03-09T00:51:41.177Z,3.70
2019-03-09T00:54:09.659Z,4.13
2019-03-09T00:56:37.486Z,5.63
2019-03-09T00:59:05.326Z,3.30
2019-03-09T01:01:32.831Z,6.80
2019-03-09T01:04:00.230Z,6.80
2019-03-09T01:06:27.955Z,3.70
2019-03-09T01:08:55.609Z,6.30
2019-03-09T01:11:23.613Z,6.13
2019-03-09T01:13:51.591Z,3.83
2019-03-09T01:16:19.551Z,4.93
2019-03-09T01:18:47.597Z,4.50
2019-03-09T01:21:15.501Z,3.90
2019-03-09T01:23:43.708Z,3.70
2019-03-09T01:26:11.839Z,2.13
2019-03-09T01:28:40.364Z,2.30
2019-03-09T01:31:11.705Z,6.67
2019-03-09T01:33:39.894Z,4.63
2019-03-09T01:36:08.280Z,6.47
2019-03-09T01:38:36.256Z,4.03
2019-03-09T01:41:04.592Z,5.37
2019-03-09T01:43:33.433Z,4.30
2019-03-09T01:46:01.552Z,2.70
2019-03-09T01:48:30.281Z,4.83
2019-03-09T01:50:58.286Z,4.27
2019-03-09T01:53:36.229Z,4.10
2019-03-09T01:55:59.920Z,6.33
2019-03-09T01:58:27.380Z,3.33
2019-03-09T02:00:54.985Z,6.33
2019-03-09T02:03:22.576Z,4.53
2019-03-09T02:05:50.103Z,5.13
2019-03-09T02:08:17.733Z,4.10
2019-03-09T02:10:45.381Z,4.10
2019-03-09T02:13:13.639Z,4.20
2019-03-09T02:15:41.079Z,8.07
2019-03-09T02:18:08.423Z,5.50
2019-03-09T02:20:36.197Z,4.57
2019-03-09T02:23:04.245Z,3.90
2019-03-09T02:25:32.449Z,4.97
2019-03-09T02:28:00.889Z,2.50
2019-03-09T02:30:35.538Z,1.60
2019-03-09T02:33:04.115Z,1.97
2019-03-09T02:35:32.011Z,6.37
2019-03-09T02:38:05.778Z,4.10
2019-03-09T02:40:33.966Z,2.17
2019-03-09T02:43:02.344Z,3.50
2019-03-09T02:45:31.390Z,5.13
2019-03-09T02:47:59.689Z,4.10
2019-03-09T02:50:27.670Z,3.70
2019-03-09T02:52:56.374Z,1.93
2019-03-09T02:55:30.909Z,3.00
2019-03-09T02:57:58.402Z,2.13
2019-03-09T03:00:28.109Z,2.80
2019-03-09T03:02:59.950Z,2.17
2019-03-09T03:05:28.746Z,1.17
2019-03-09T03:07:56.366Z,3.23
2019-03-09T03:10:24.025Z,1.33
2019-03-09T03:12:51.459Z,1.87
2019-03-09T03:15:33.353Z,1.30
2019-03-09T03:18:04.743Z,1.53
2019-03-09T03:20:32.308Z,1.10
2019-03-09T03:23:00.242Z,1.13
2019-03-09T03:25:28.095Z,1.43
2019-03-09T03:27:55.972Z,1.20
2019-03-09T03:30:24.055Z,0.87
2019-03-09T03:32:53.320Z,1.60
2019-03-09T03:35:20.733Z,1.43
2019-03-09T03:37:48.871Z,1.00
2019-03-09T03:40:16.307Z,2.13
2019-03-09T03:42:44.606Z,1.27
2019-03-09T03:45:12.688Z,1.27
2019-03-09T03:47:40.555Z,1.27
2019-03-09T03:50:08.190Z,3.33
2019-03-09T03:52:35.751Z,1.00
2019-03-09T03:55:03.479Z,1.03
2019-03-09T03:57:31.496Z,1.17
2019-03-09T03:59:58.997Z,3.90
2019-03-09T04:02:27.009Z,1.07
2019-03-09T04:04:54.512Z,1.40
2019-03-09T04:07:22.498Z,1.40
2019-03-09T04:09:50.470Z,1.93
2019-03-09T04:12:17.890Z,1.10
2019-03-09T04:14:45.415Z,1.20
2019-03-09T04:17:13.767Z,1.00
2019-03-09T04:19:41.773Z,1.10
2019-03-09T04:22:09.117Z,1.17
2019-03-09T04:24:38.719Z,0.93
2019-03-09T04:27:06.559Z,1.00
2019-03-09T04:29:34.460Z,1.60
2019-03-09T04:32:02.183Z,1.03
2019-03-09T04:34:29.708Z,1.17
2019-03-09T04:36:59.404Z,1.10
2019-03-09T04:39:26.942Z,1.70
2019-03-09T04:41:54.966Z,1.63
2019-03-09T04:44:22.346Z,1.57
2019-03-09T04:46:49.851Z,1.43
2019-03-09T04:49:17.674Z,1.77
2019-03-09T04:51:45.706Z,1.50
2019-03-09T04:54:13.140Z,1.23
2019-03-09T04:56:40.766Z,2.13
2019-03-09T04:59:08.684Z,1.53
2019-03-09T05:01:36.101Z,2.00
2019-03-09T05:04:41.282Z,2.13
2019-03-09T05:07:09.959Z,2.40
2019-03-09T05:09:51.551Z,2.50
2019-03-09T05:12:19.518Z,3.20
2019-03-09T05:14:47.265Z,2.23
2019-03-09T05:17:15.119Z,2.77
2019-03-09T05:19:42.847Z,2.87
2019-03-09T05:22:11.227Z,5.73
2019-03-09T05:24:39.566Z,2.83
2019-03-09T05:27:07.221Z,3.20
2019-03-09T05:29:35.707Z,3.10
2019-03-09T05:32:04.680Z,3.17
2019-03-09T05:34:35.231Z,4.27
2019-03-09T05:37:02.803Z,3.70
2019-03-09T05:39:30.870Z,3.67
2019-03-09T05:41:58.609Z,3.70
2019-03-09T05:44:26.270Z,3.30
2019-03-09T05:46:54.463Z,3.27
2019-03-09T05:49:22.498Z,3.60
2019-03-09T05:52:28.011Z,4.13
2019-03-09T05:54:56.161Z,4.50
2019-03-09T05:57:24.306Z,3.50
2019-03-09T05:59:52.616Z,3.77
2019-03-09T06:02:20.384Z,4.37
2019-03-09T06:04:48.548Z,4.47
2019-03-09T06:07:17.243Z,4.27
2019-03-09T06:09:45.014Z,5.93
2019-03-09T06:12:13.431Z,36.67
2019-03-09T06:14:41.820Z,22.03
2019-03-09T06:17:10.471Z,12.53
2019-03-09T06:19:38.336Z,8.20
2019-03-09T06:22:06.702Z,5.60
2019-03-09T06:24:34.766Z,4.77
2019-03-09T06:27:02.481Z,7.43
2019-03-09T06:29:31.065Z,7.87
2019-03-09T06:32:43.007Z,6.43
2019-03-09T06:35:10.990Z,5.67
2019-03-09T06:37:38.629Z,7.20
2019-03-09T06:40:06.551Z,4.00
2019-03-09T06:42:51.393Z,5.57
2019-03-09T06:45:19.284Z,5.70
2019-03-09T06:47:46.891Z,4.27
2019-03-09T06:50:18.227Z,4.73
2019-03-09T06:52:45.931Z,3.70
2019-03-09T06:55:13.778Z,6.60
2019-03-09T06:57:41.268Z,4.53
2019-03-09T07:00:26.486Z,5.10
2019-03-09T07:02:54.138Z,6.90
2019-03-09T07:05:21.723Z,4.93
2019-03-09T07:07:49.140Z,5.30
2019-03-09T07:10:16.637Z,5.20
2019-03-09T07:12:44.220Z,5.27
2019-03-09T07:15:28.746Z,4.60
2019-03-09T07:18:10.662Z,6.57
2019-03-09T07:20:38.463Z,15.30
2019-03-09T07:23:06.182Z,5.27
2019-03-09T07:25:34.033Z,5.10
2019-03-09T07:28:03.674Z,8.47
2019-03-09T07:30:31.429Z,5.10
2019-03-09T07:32:59.404Z,5.27
2019-03-09T07:35:26.946Z,6.83
2019-03-09T07:37:54.448Z,4.93
2019-03-09T07:40:22.133Z,4.23
2019-03-09T07:42:50.758Z,5.40
2019-03-09T07:45:18.461Z,26.43
2019-03-09T07:47:46.283Z,18.30
2019-03-09T07:50:14.001Z,7.80
2019-03-09T07:52:42.316Z,9.70
2019-03-09T07:55:11.309Z,4.23
2019-03-09T07:57:39.993Z,5.27
2019-03-09T08:00:11.167Z,5.17
2019-03-09T08:02:40.652Z,4.10
2019-03-09T08:05:08.764Z,7.87
2019-03-09T08:07:39.746Z,3.53
2019-03-09T08:10:15.620Z,8.43
2019-03-09T08:12:43.405Z,4.00
2019-03-09T08:15:14.269Z,3.50
2019-03-09T08:17:42.316Z,3.17
2019-03-09T08:20:10.529Z,7.10
2019-03-09T08:22:38.350Z,3.13
2019-03-09T08:25:07.247Z,5.63
2019-03-09T08:27:34.699Z,7.13
2019-03-09T08:30:03.910Z,3.80
2019-03-09T08:32:38.245Z,3.23
2019-03-09T08:35:05.926Z,8.90
2019-03-09T08:37:35.290Z,6.47
2019-03-09T08:40:03.515Z,26.60
2019-03-09T08:42:31.700Z,23.10
2019-03-09T08:44:59.948Z,7.73
2019-03-09T08:47:28.723Z,7.10
2019-03-09T08:49:56.690Z,3.13
2019-03-09T08:52:24.606Z,6.00
2019-03-09T08:54:52.259Z,6.30
2019-03-09T08:57:20.449Z,5.63
2019-03-09T08:59:48.157Z,5.63
2019-03-09T09:02:15.868Z,13.73
2019-03-09T09:04:44.142Z,8.30
2019-03-09T09:07:13.063Z,5.43
2019-03-09T09:09:40.552Z,5.33
2019-03-09T09:12:08.367Z,8.00
2019-03-09T09:14:36.714Z,6.90
2019-03-09T09:17:04.791Z,5.43
2019-03-09T09:19:32.768Z,6.80
2019-03-09T09:22:00.994Z,6.57
2019-03-09T09:24:28.802Z,7.80
2019-03-09T09:26:57.023Z,10.63
2019-03-09T09:29:25.789Z,6.07
2019-03-09T09:31:54.516Z,4.13
2019-03-09T09:34:22.577Z,10.70
2019-03-09T09:36:50.529Z,9.63
2019-03-09T09:39:18.477Z,4.83
2019-03-09T09:41:47.155Z,3.67
2019-03-09T09:44:15.313Z,6.73
2019-03-09T09:46:44.034Z,5.57
2019-03-09T09:49:11.979Z,6.47
2019-03-09T09:51:40.050Z,11.60
2019-03-09T09:54:07.713Z,10.83
2019-03-09T09:56:35.933Z,6.67
2019-03-09T09:59:03.690Z,27.50
2019-03-09T10:01:31.563Z,20.07
2019-03-09T10:04:04.754Z,8.10
2019-03-09T10:06:32.793Z,5.03
2019-03-09T10:09:00.580Z,7.27
2019-03-09T10:11:28.861Z,12.17
2019-03-09T10:13:56.871Z,7.30
2019-03-09T10:16:24.561Z,8.77
2019-03-09T10:18:53.342Z,6.23
2019-03-09T10:21:21.359Z,8.37
2019-03-09T10:23:49.030Z,5.60
2019-03-09T10:26:17.261Z,8.50
2019-03-09T10:28:46.016Z,10.30
2019-03-09T10:31:13.880Z,3.10
2019-03-09T10:33:42.001Z,6.10
2019-03-09T10:36:10.363Z,5.80
2019-03-09T10:38:38.219Z,23.97
2019-03-09T10:41:05.893Z,39.50
2019-03-09T10:43:34.889Z,15.17
2019-03-09T10:46:12.434Z,7.20
2019-03-09T10:48:40.949Z,13.40
2019-03-09T10:51:08.720Z,6.67
2019-03-09T10:53:37.515Z,10.33
2019-03-09T10:56:05.885Z,7.73
2019-03-09T10:58:39.899Z,8.97
2019-03-09T11:01:08.794Z,10.30
2019-03-09T11:03:36.969Z,6.87
2019-03-09T11:06:06.971Z,7.90
2019-03-09T11:08:35.258Z,4.80
2019-03-09T11:11:03.135Z,6.00
2019-03-09T11:13:30.912Z,9.83
2019-03-09T11:15:59.059Z,10.53
2019-03-09T11:18:27.456Z,8.67
2019-03-09T11:20:55.864Z,7.20
2019-03-09T11:23:23.570Z,9.47
2019-03-09T11:25:52.651Z,13.83
2019-03-09T11:28:20.349Z,8.40
2019-03-09T11:30:48.493Z,12.93
2019-03-09T11:33:17.380Z,13.43
2019-03-09T11:35:45.450Z,10.77
2019-03-09T11:38:13.645Z,11.00
2019-03-09T11:40:41.716Z,5.37
2019-03-09T11:43:09.785Z,7.30
2019-03-09T11:45:37.879Z,15.37
2019-03-09T11:48:06.932Z,5.23
2019-03-09T11:50:41.116Z,6.90
2019-03-09T11:53:09.781Z,7.20
2019-03-09T11:55:37.640Z,4.90
2019-03-09T11:58:05.902Z,10.93
2019-03-09T12:00:35.978Z,8.80
2019-03-09T12:03:03.538Z,20.33
2019-03-09T12:05:31.438Z,54.50
2019-03-09T12:07:59.533Z,9.90
2019-03-09T12:10:27.589Z,6.70
2019-03-09T12:12:55.452Z,8.93
2019-03-09T12:15:24.435Z,4.43
2019-03-09T12:17:53.229Z,9.00
2019-03-09T12:20:24.616Z,6.30
2019-03-09T12:22:52.408Z,5.00
2019-03-09T12:25:20.261Z,4.60
2019-03-09T12:27:48.102Z,8.63
2019-03-09T12:30:16.386Z,8.30
2019-03-09T12:32:44.425Z,8.10
2019-03-09T12:35:13.759Z,8.67
2019-03-09T12:37:42.036Z,9.77
2019-03-09T12:40:11.854Z,9.00
2019-03-09T12:42:39.763Z,6.47
2019-03-09T12:45:08.840Z,7.97
2019-03-09T12:47:37.701Z,7.83
2019-03-09T12:50:08.456Z,8.00
2019-03-09T12:52:37.081Z,11.63
2019-03-09T12:55:06.216Z,11.00
2019-03-09T12:57:34.261Z,10.53
2019-03-09T13:00:02.788Z,11.43
2019-03-09T13:02:31.102Z,13.00
2019-03-09T13:05:00.337Z,12.50
2019-03-09T13:07:28.183Z,9.80
2019-03-09T13:09:56.054Z,17.73
2019-03-09T13:12:23.855Z,15.60
2019-03-09T13:14:52.796Z,19.33
2019-03-09T13:17:21.416Z,10.63
2019-03-09T13:19:49.440Z,14.53
2019-03-09T13:22:16.972Z,19.10
2019-03-09T13:24:44.907Z,19.97
2019-03-09T13:27:13.157Z,12.87
2019-03-09T13:29:43.053Z,12.67
2019-03-09T13:32:16.070Z,13.53
2019-03-09T13:34:44.411Z,21.03
2019-03-09T13:37:14.076Z,15.83
2019-03-09T13:39:46.796Z,18.77
2019-03-09T13:42:15.355Z,13.87
2019-03-09T13:44:45.194Z,21.90
2019-03-09T13:47:13.848Z,16.17
2019-03-09T13:49:42.604Z,36.03
2019-03-09T13:52:11.474Z,24.77
2019-03-09T13:54:40.189Z,14.90
2019-03-09T13:57:09.032Z,14.93
2019-03-09T13:59:37.882Z,19.57
2019-03-09T14:02:05.690Z,16.77
2019-03-09T14:04:38.449Z,16.77
2019-03-09T14:07:07.196Z,15.70
2019-03-09T14:09:36.214Z,21.40
2019-03-09T14:12:06.413Z,19.87
2019-03-09T14:14:34.289Z,26.63
2019-03-09T14:17:02.655Z,17.73
2019-03-09T14:19:33.410Z,12.40
2019-03-09T14:22:04.264Z,17.57
2019-03-09T14:24:34.361Z,26.93
2019-03-09T14:27:06.670Z,14.40
2019-03-09T14:29:36.641Z,24.53
2019-03-09T14:32:07.162Z,13.60
2019-03-09T14:34:35.941Z,14.20
2019-03-09T14:37:06.354Z,20.27
2019-03-09T14:39:34.184Z,19.93
2019-03-09T14:42:02.257Z,15.03
2019-03-09T14:44:30.647Z,20.70
2019-03-09T14:46:58.862Z,19.97
2019-03-09T14:49:27.489Z,26.33
2019-03-09T14:51:56.549Z,20.97
2019-03-09T14:54:25.814Z,18.73
2019-03-09T14:56:53.530Z,20.83
2019-03-09T14:59:23.241Z,24.90
2019-03-09T15:01:51.192Z,22.70
2019-03-09T15:04:19.250Z,19.10
2019-03-09T15:06:47.116Z,23.63
2019-03-09T15:09:15.323Z,33.43
2019-03-09T15:11:43.288Z,25.07
2019-03-09T15:14:11.102Z,26.83
2019-03-09T15:16:40.026Z,16.93
2019-03-09T15:19:08.928Z,13.70
2019-03-09T15:21:37.609Z,16.10
2019-03-09T15:24:05.240Z,17.77
2019-03-09T15:26:33.136Z,15.10
2019-03-09T15:29:00.982Z,17.97
2019-03-09T15:31:29.973Z,13.03
2019-03-09T15:33:57.407Z,23.23
2019-03-09T15:36:25.717Z,22.47
2019-03-09T15:38:53.574Z,19.47
2019-03-09T15:41:21.646Z,21.00
2019-03-09T15:43:49.299Z,13.03
2019-03-09T15:46:18.410Z,15.87
2019-03-09T15:48:46.790Z,15.53
2019-03-09T15:51:14.868Z,12.37
2019-03-09T15:53:42.898Z,19.03
2019-03-09T15:56:11.480Z,15.53
2019-03-09T15:58:40.418Z,6.67
2019-03-09T16:01:10.529Z,9.83
2019-03-09T16:03:38.519Z,7.30
2019-03-09T16:06:07.839Z,11.60
2019-03-09T16:08:35.909Z,12.30
2019-03-09T16:11:04.394Z,13.23
2019-03-09T16:13:33.209Z,18.63
2019-03-09T16:16:01.616Z,17.57
2019-03-09T16:18:30.523Z,19.37
2019-03-09T16:20:59.603Z,7.70
2019-03-09T16:23:28.731Z,8.10
2019-03-09T16:25:57.782Z,6.07
2019-03-09T16:28:28.050Z,4.60
2019-03-09T16:30:57.021Z,6.77
2019-03-09T16:33:25.712Z,3.67
2019-03-09T16:35:53.681Z,6.80
2019-03-09T16:38:21.688Z,4.60
2019-03-09T16:40:50.127Z,5.87
2019-03-09T16:43:19.269Z,4.77
2019-03-09T16:45:46.806Z,3.63
2019-03-09T16:48:16.181Z,5.77
2019-03-09T16:50:45.757Z,6.07
2019-03-09T16:53:15.500Z,8.00
2019-03-09T16:55:43.860Z,5.30
2019-03-09T16:58:12.049Z,9.10
2019-03-09T17:00:39.786Z,4.33
2019-03-09T17:03:07.685Z,17.90
2019-03-09T17:05:35.448Z,9.13
2019-03-09T17:08:04.149Z,9.70
2019-03-09T17:10:32.542Z,8.20
2019-03-09T17:13:00.991Z,9.53
2019-03-09T17:15:29.773Z,9.73
2019-03-09T17:17:57.518Z,10.63
2019-03-09T17:20:25.090Z,6.30
2019-03-09T17:22:53.367Z,10.07
2019-03-09T17:25:22.713Z,15.27
2019-03-09T17:27:51.121Z,12.37
2019-03-09T17:30:19.223Z,9.93
2019-03-09T17:32:47.403Z,7.37
2019-03-09T17:35:15.391Z,5.60
2019-03-09T17:37:43.572Z,14.73
2019-03-09T17:40:11.709Z,7.37
2019-03-09T17:42:42.560Z,6.27
2019-03-09T17:45:16.195Z,7.57
2019-03-09T17:47:45.383Z,8.70
2019-03-09T17:50:13.675Z,8.43
2019-03-09T17:52:41.678Z,10.27
2019-03-09T17:55:09.548Z,10.73
2019-03-09T17:57:38.884Z,8.20
2019-03-09T18:00:11.520Z,7.83
2019-03-09T18:02:39.647Z,8.50
2019-03-09T18:05:07.482Z,14.67
2019-03-09T18:07:35.178Z,6.30
2019-03-09T18:10:03.803Z,13.47
2019-03-09T18:12:31.479Z,13.07
2019-03-09T18:15:02.111Z,11.63
2019-03-09T18:17:30.225Z,11.33
2019-03-09T18:19:57.999Z,7.40
2019-03-09T18:22:25.418Z,26.20
2019-03-09T18:24:53.284Z,14.10
2019-03-09T18:27:21.750Z,7.10
2019-03-09T18:29:49.309Z,9.40
2019-03-09T18:32:18.062Z,9.83
2019-03-09T18:34:46.088Z,8.80
2019-03-09T18:37:14.127Z,11.90
2019-03-09T18:39:41.498Z,16.93
2019-03-09T18:42:08.925Z,12.07
2019-03-09T18:44:36.384Z,11.57
2019-03-09T18:47:04.383Z,16.80
2019-03-09T18:49:31.947Z,10.93
2019-03-09T18:51:59.448Z,8.13
2019-03-09T18:54:27.029Z,14.93
2019-03-09T18:56:55.422Z,8.67
2019-03-09T18:59:22.893Z,6.40
2019-03-09T19:01:53.427Z,14.40
2019-03-09T19:04:21.485Z,8.57
2019-03-09T19:06:53.873Z,8.03
2019-03-09T19:09:21.315Z,15.23
2019-03-09T19:11:49.407Z,10.70
2019-03-09T19:14:17.553Z,8.70
2019-03-09T19:16:45.373Z,10.60
2019-03-09T19:19:13.689Z,8.50
2019-03-09T19:21:41.994Z,8.47
2019-03-09T19:24:10.837Z,13.77
2019-03-09T19:26:38.803Z,13.67
2019-03-09T19:29:06.576Z,8.97
2019-03-09T19:31:34.720Z,9.30
2019-03-09T19:34:02.284Z,9.37
2019-03-09T19:36:31.487Z,9.90
2019-03-09T19:39:00.019Z,13.63
2019-03-09T19:41:28.182Z,11.23
2019-03-09T19:43:56.461Z,5.93
2019-03-09T19:46:24.519Z,5.73
2019-03-09T19:48:52.916Z,10.87
2019-03-09T19:51:20.168Z,15.47
2019-03-09T19:53:49.105Z,42.53
2019-03-09T19:56:17.241Z,20.37
2019-03-09T19:58:45.565Z,10.20
2019-03-09T20:01:13.863Z,16.97
2019-03-09T20:03:41.377Z,6.90
2019-03-09T20:06:09.386Z,7.70
2019-03-09T20:08:37.451Z,7.83
2019-03-09T20:11:05.267Z,7.40
2019-03-09T20:13:32.657Z,3.07
2019-03-09T20:16:01.003Z,5.60
2019-03-09T20:18:29.688Z,7.13
2019-03-09T20:20:59.804Z,5.80
2019-03-09T20:23:29.818Z,10.10
2019-03-09T20:25:58.108Z,6.27
2019-03-09T20:28:27.308Z,4.20
2019-03-09T20:30:56.148Z,4.60
2019-03-09T20:33:24.316Z,6.63
2019-03-09T20:35:52.751Z,6.47
2019-03-09T20:38:21.146Z,3.73
2019-03-09T20:40:50.638Z,5.23
2019-03-09T20:43:19.389Z,3.37
2019-03-09T20:45:48.552Z,4.80
2019-03-09T20:48:17.061Z,9.97
2019-03-09T20:50:44.572Z,7.03
2019-03-09T20:53:12.287Z,4.90
2019-03-09T20:55:40.323Z,4.70
2019-03-09T20:58:08.192Z,3.07
2019-03-09T21:00:36.363Z,4.60
2019-03-09T21:03:05.005Z,2.60
2019-03-09T21:05:33.402Z,5.37
2019-03-09T21:08:01.425Z,7.43
2019-03-09T21:10:29.271Z,9.77
2019-03-09T21:13:01.894Z,5.27
2019-03-09T21:15:29.889Z,8.07
2019-03-09T21:17:57.590Z,3.17
2019-03-09T21:20:25.176Z,7.60
2019-03-09T21:22:53.361Z,3.43
2019-03-09T21:25:20.983Z,4.60
2019-03-09T21:27:48.334Z,3.70
2019-03-09T21:30:15.838Z,15.50
2019-03-09T21:32:43.492Z,7.40
2019-03-09T21:35:10.909Z,10.40
2019-03-09T21:37:39.418Z,10.77
2019-03-09T21:40:07.137Z,7.80
2019-03-09T21:42:34.518Z,13.03
2019-03-09T21:45:02.123Z,7.23
2019-03-09T21:47:29.784Z,6.60
2019-03-09T21:49:57.184Z,12.90
2019-03-09T21:52:24.862Z,6.03
2019-03-09T21:54:52.615Z,6.40
2019-03-09T21:57:20.366Z,11.70
2019-03-09T21:59:48.301Z,12.57
2019-03-09T22:02:15.930Z,9.90
2019-03-09T22:04:43.387Z,9.53
2019-03-09T22:07:11.685Z,9.00
2019-03-09T22:09:39.846Z,15.83
2019-03-09T22:12:07.714Z,14.00
2019-03-09T22:14:35.808Z,11.23
2019-03-09T22:17:03.361Z,8.70
2019-03-09T22:19:30.833Z,6.67
2019-03-09T22:21:58.851Z,18.13
2019-03-09T22:24:26.243Z,12.87
2019-03-09T22:26:53.629Z,10.50
2019-03-09T22:29:21.674Z,8.23
2019-03-09T22:31:49.592Z,11.67
2019-03-09T22:34:17.060Z,11.13
2019-03-09T22:36:44.611Z,10.60
2019-03-09T22:39:12.166Z,11.47
2019-03-09T22:41:39.691Z,12.30
2019-03-09T22:44:07.096Z,16.30
2019-03-09T22:46:34.766Z,8.17
2019-03-09T22:49:02.613Z,10.80
2019-03-09T22:51:30.297Z,13.80
2019-03-09T22:53:58.142Z,9.60
2019-03-09T22:56:25.708Z,11.47
2019-03-09T22:58:53.206Z,15.83
2019-03-09T23:01:21.076Z,13.90
2019-03-09T23:03:48.564Z,14.40
2019-03-09T23:06:16.497Z,14.83
2019-03-09T23:08:44.612Z,18.30
2019-03-09T23:11:12.179Z,19.37
2019-03-09T23:13:39.986Z,13.90
2019-03-09T23:16:10.813Z,14.80
2019-03-09T23:18:38.307Z,19.63
2019-03-09T23:21:06.110Z,13.07
2019-03-09T23:23:33.527Z,19.43
2019-03-09T23:26:00.831Z,20.23
2019-03-09T23:28:42.848Z,18.50
2019-03-09T23:31:10.193Z,13.83
2019-03-09T23:33:37.687Z,18.73
2019-03-09T23:36:05.153Z,21.70
2019-03-09T23:38:32.593Z,19.83
2019-03-09T23:41:00.128Z,20.83
2019-03-09T23:43:27.535Z,22.03
2019-03-09T23:45:55.463Z,19.23
2019-03-09T23:48:23.003Z,13.90
2019-03-09T23:50:50.561Z,22.10
2019-03-09T23:53:18.546Z,15.33
2019-03-09T23:55:46.830Z,14.20
2019-03-09T23:58:14.461Z,19.17
